Airfield :







YOU CAN JOIN US ON...

 
LOGIN :

Register | Disclaimer

   EN    FR    IT 

 









Legend :    VFR   Marginal VFR   IFR   Intensive IFR   Very Intensive IFR
Visi :
Ceiling :
>= 8 km
>= 3000ft
5 to 8 km
1000 to 3000 ft
1500m to 5 km
500 to 1000 ft
800 to 1500m
200 to 500 ft
< 800m
< 200 ft
Symbols :   Thunderstorms  Fog  Heavy snow  Heavy precipitations  Wind > 20 kt







- Airport Elevation : 100 ft
- IATA code : PSM


KPSM - Portsmouth International at Pease

CURRENT METAR :
  • 171756Z 25004KT 10SM BKN100 OVC200 29/21 A2985 RMK AO2A SLP110 60000 T02880213 10292 20245 57009

EXPIRED METARs :
  • 171656Z 23007KT 10SM BKN100 OVC200 28/21 A2986 RMK AO2A SLP113 T02810209
  • 171556Z 24008KT 10SM BKN100 BKN200 28/21 A2987 RMK AO2A SLP117 T02820207

TAF KPSM
Valid from the 17 at 18:00 until the 18 at 18:00 UTC


171728Z 1718/1818 24008KT P6SM BKN100 BKN200
FM171900 28009KT P6SM -SHRA BKN060 OVC080
TEMPO 1720/1724 2SM +TSRA OVC050CB
FM180200 00000KT P6SM BKN080 OVC120
FM181200 06007KT P6SM BKN025 OVC050
KZBW FIR / North America



MET'MAP, your aeronautical weather chart ! - Copyright ORBIFLY December 2007 - Disclaimer

ORBIFLY MET'MAP TEAM :

Programming & Development : Alexandra Zaïnal
Concept & Development : Baudouin d'Aumeries
Co-Development & Prog : Marc-Olivier Méhu
Technical & hardware support : Manuel Goepfert

Contact : metmap@orbifly.com




SOURCES & CREDITS :

   NOAA